createdAt,value
2022-08-19T00:00:25.237Z,22.23
2022-08-19T00:01:26.258Z,22.25
2022-08-19T00:02:25.093Z,22.26
2022-08-19T00:03:25.015Z,22.22
2022-08-19T00:04:24.975Z,22.26
2022-08-19T00:05:24.871Z,22.32
2022-08-19T00:06:24.796Z,22.23
2022-08-19T00:07:24.726Z,22.17
2022-08-19T00:08:24.646Z,22.23
2022-08-19T00:09:24.570Z,22.20
2022-08-19T00:10:24.497Z,22.15
2022-08-19T00:11:26.028Z,22.18
2022-08-19T00:12:24.356Z,22.14
2022-08-19T00:13:24.278Z,22.17
2022-08-19T00:14:24.198Z,22.17
2022-08-19T00:15:24.128Z,22.10
2022-08-19T00:16:26.135Z,22.06
2022-08-19T00:17:23.982Z,22.11
2022-08-19T00:18:23.908Z,22.15
2022-08-19T00:19:23.836Z,22.06
2022-08-19T00:20:23.776Z,22.07
2022-08-19T00:21:23.691Z,22.06
2022-08-19T00:22:23.617Z,22.07
2022-08-19T00:23:23.536Z,22.06
2022-08-19T00:24:23.472Z,22.04
2022-08-19T00:25:30.260Z,22.00
2022-08-19T00:26:23.324Z,22.06
2022-08-19T00:27:26.221Z,22.02
2022-08-19T00:28:23.170Z,22.02
2022-08-19T00:29:23.098Z,22.04
2022-08-19T00:30:23.026Z,22.07
2022-08-19T00:31:22.953Z,22.00
2022-08-19T00:32:22.877Z,21.99
2022-08-19T00:33:22.802Z,21.95
2022-08-19T00:34:22.727Z,21.96
2022-08-19T00:35:22.652Z,21.95
2022-08-19T00:36:22.576Z,21.93
2022-08-19T00:37:22.506Z,21.89
2022-08-19T00:38:35.217Z,21.91
2022-08-19T00:39:22.359Z,21.89
2022-08-19T00:40:22.285Z,21.93
2022-08-19T00:41:22.225Z,21.92
2022-08-19T00:42:22.133Z,21.93
2022-08-19T00:43:22.063Z,21.89
2022-08-19T00:44:26.822Z,21.95
2022-08-19T00:45:21.915Z,21.92
2022-08-19T00:46:21.841Z,21.92
2022-08-19T00:47:21.766Z,21.80
2022-08-19T00:48:21.689Z,21.80
2022-08-19T00:49:21.619Z,21.85
2022-08-19T00:50:21.549Z,21.85
2022-08-19T00:51:21.469Z,21.82
2022-08-19T00:52:21.396Z,21.91
2022-08-19T00:53:21.323Z,21.83
2022-08-19T00:54:28.641Z,21.88
2022-08-19T00:55:21.178Z,21.91
2022-08-19T00:56:21.098Z,21.89
2022-08-19T00:57:21.031Z,21.92
2022-08-19T00:58:20.952Z,21.92
2022-08-19T00:59:58.860Z,21.95
2022-08-19T01:00:20.802Z,21.96
2022-08-19T01:01:20.773Z,21.96
2022-08-19T01:02:20.675Z,21.96
2022-08-19T01:03:20.580Z,21.95
2022-08-19T01:04:20.511Z,21.98
2022-08-19T01:05:20.433Z,21.95
2022-08-19T01:06:20.886Z,21.95
2022-08-19T01:07:20.287Z,21.98
2022-08-19T01:08:20.216Z,21.96
2022-08-19T01:09:20.139Z,21.93
2022-08-19T01:10:20.065Z,21.88
2022-08-19T01:11:19.990Z,21.83
2022-08-19T01:12:19.923Z,21.83
2022-08-19T01:13:19.842Z,21.85
2022-08-19T01:14:19.771Z,21.88
2022-08-19T01:15:19.693Z,21.85
2022-08-19T01:16:19.624Z,21.88
2022-08-19T01:17:19.543Z,21.85
2022-08-19T01:18:19.469Z,21.80
2022-08-19T01:19:19.401Z,21.80
2022-08-19T01:20:19.323Z,21.82
2022-08-19T01:21:19.262Z,21.92
2022-08-19T01:22:23.363Z,21.88
2022-08-19T01:23:19.104Z,21.85
2022-08-19T01:24:19.040Z,21.96
2022-08-19T01:25:18.957Z,21.95
2022-08-19T01:26:18.878Z,21.99
2022-08-19T01:27:18.807Z,21.93
2022-08-19T01:28:18.734Z,21.98
2022-08-19T01:29:18.662Z,21.96
2022-08-19T01:30:18.586Z,21.93
2022-08-19T01:31:27.329Z,22.00
2022-08-19T01:32:33.318Z,21.98
2022-08-19T01:33:18.360Z,22.08
2022-08-19T01:34:18.285Z,22.06
2022-08-19T01:35:18.218Z,22.04
2022-08-19T01:36:18.143Z,22.04
2022-08-19T01:37:27.022Z,22.08
2022-08-19T01:38:18.011Z,22.10
2022-08-19T01:39:17.914Z,22.04
2022-08-19T01:40:17.878Z,22.06
2022-08-19T01:41:17.772Z,22.02
2022-08-19T01:42:17.695Z,22.07
2022-08-19T01:43:17.626Z,22.04
2022-08-19T01:44:19.251Z,22.10
2022-08-19T01:45:17.473Z,22.11
2022-08-19T01:46:18.187Z,22.07
2022-08-19T01:47:17.324Z,22.11
2022-08-19T01:48:17.254Z,22.08
2022-08-19T01:49:17.179Z,22.15
2022-08-19T01:50:17.109Z,22.11
2022-08-19T01:51:17.029Z,22.04
2022-08-19T01:52:16.959Z,22.14
2022-08-19T01:53:16.881Z,22.04
2022-08-19T01:54:23.238Z,22.08
2022-08-19T01:55:16.737Z,22.11
2022-08-19T01:56:16.660Z,22.06
2022-08-19T01:57:16.584Z,22.07
2022-08-19T01:58:16.516Z,22.07
2022-08-19T01:59:16.436Z,22.04
2022-08-19T02:00:16.367Z,22.13
2022-08-19T02:01:16.348Z,22.08
2022-08-19T02:02:16.219Z,22.06
2022-08-19T02:03:16.147Z,22.02
2022-08-19T02:04:16.068Z,22.06
2022-08-19T02:05:15.995Z,22.08
2022-08-19T02:06:15.920Z,22.04
2022-08-19T02:07:15.850Z,21.99
2022-08-19T02:08:15.775Z,21.99
2022-08-19T02:09:15.703Z,22.00
2022-08-19T02:10:16.534Z,22.00
2022-08-19T02:11:15.555Z,22.00
2022-08-19T02:12:15.483Z,22.00
2022-08-19T02:13:15.407Z,21.99
2022-08-19T02:14:15.328Z,22.00
2022-08-19T02:15:15.259Z,21.95
2022-08-19T02:16:15.179Z,21.95
2022-08-19T02:17:15.105Z,21.93
2022-08-19T02:18:15.044Z,21.93
2022-08-19T02:19:14.960Z,21.99
2022-08-19T02:20:14.887Z,21.98
2022-08-19T02:21:14.811Z,21.95
2022-08-19T02:22:14.739Z,21.96
2022-08-19T02:23:16.186Z,21.93
2022-08-19T02:24:14.592Z,21.98
2022-08-19T02:25:14.516Z,21.82
2022-08-19T02:26:14.442Z,21.88
2022-08-19T02:27:14.370Z,21.82
2022-08-19T02:28:18.308Z,21.85
2022-08-19T02:29:14.222Z,21.85
2022-08-19T02:30:14.437Z,21.83
2022-08-19T02:31:14.073Z,21.95
2022-08-19T02:32:13.997Z,21.95
2022-08-19T02:33:13.923Z,21.89
2022-08-19T02:34:13.852Z,21.88
2022-08-19T02:35:13.778Z,21.93
2022-08-19T02:36:13.706Z,21.93
2022-08-19T02:37:13.626Z,21.92
2022-08-19T02:38:13.551Z,21.95
2022-08-19T02:39:13.478Z,21.92
2022-08-19T02:40:13.492Z,21.93
2022-08-19T02:41:13.340Z,21.98
2022-08-19T02:42:13.263Z,22.00
2022-08-19T02:43:13.193Z,21.99
2022-08-19T02:44:29.749Z,21.95
2022-08-19T02:45:13.036Z,21.99
2022-08-19T02:46:12.959Z,21.96
2022-08-19T02:47:12.893Z,22.06
2022-08-19T02:48:21.590Z,22.04
2022-08-19T02:49:12.738Z,22.02
2022-08-19T02:50:12.672Z,22.02
2022-08-19T02:51:12.589Z,22.10
2022-08-19T02:52:12.518Z,22.04
2022-08-19T02:53:12.447Z,21.95
2022-08-19T02:54:12.370Z,22.08
2022-08-19T02:55:12.293Z,21.93
2022-08-19T02:56:12.224Z,22.02
2022-08-19T02:57:19.340Z,22.10
2022-08-19T02:59:15.993Z,21.95
2022-08-19T03:00:15.901Z,21.93
2022-08-19T03:02:19.737Z,22.04
2022-08-19T03:03:19.659Z,21.96
2022-08-19T03:05:28.386Z,22.02
2022-08-19T03:06:23.419Z,21.95
2022-08-19T03:08:16.213Z,21.99
2022-08-19T03:09:16.123Z,21.95
2022-08-19T03:10:16.044Z,21.96
2022-08-19T03:11:15.970Z,22.00
2022-08-19T03:12:15.928Z,22.00
2022-08-19T03:13:15.819Z,21.95
2022-08-19T03:14:15.744Z,21.95
2022-08-19T03:15:15.671Z,22.04
2022-08-19T03:16:15.602Z,22.06
2022-08-19T03:17:15.523Z,21.96
2022-08-19T03:18:15.454Z,21.99
2022-08-19T03:19:15.376Z,22.00
2022-08-19T03:20:15.304Z,21.96
2022-08-19T03:21:15.230Z,21.98
2022-08-19T03:22:15.157Z,22.06
2022-08-19T03:23:15.086Z,22.04
2022-08-19T03:24:15.008Z,22.06
2022-08-19T03:25:14.938Z,22.06
2022-08-19T03:26:16.786Z,22.04
2022-08-19T03:27:14.782Z,22.04
2022-08-19T03:28:14.712Z,22.04
2022-08-19T03:29:14.634Z,22.07
2022-08-19T03:30:14.566Z,22.07
2022-08-19T03:31:44.720Z,21.99
2022-08-19T03:32:32.141Z,22.07
2022-08-19T03:33:18.289Z,22.02
2022-08-19T03:34:14.266Z,22.04
2022-08-19T03:35:14.192Z,22.04
2022-08-19T03:36:14.118Z,22.08
2022-08-19T03:37:14.043Z,22.07
2022-08-19T03:38:13.969Z,22.06
2022-08-19T03:39:13.894Z,21.96
2022-08-19T03:40:13.825Z,22.06
2022-08-19T03:41:13.751Z,22.02
2022-08-19T03:42:38.434Z,22.02
2022-08-19T03:43:13.599Z,21.93
2022-08-19T03:44:16.813Z,22.04
2022-08-19T03:45:13.456Z,22.00
2022-08-19T03:46:13.379Z,22.04
2022-08-19T03:47:13.313Z,22.10
2022-08-19T03:48:13.236Z,22.10
2022-08-19T03:49:14.208Z,22.08
2022-08-19T03:50:13.083Z,22.13
2022-08-19T03:51:13.013Z,22.10
2022-08-19T03:52:12.934Z,22.06
2022-08-19T03:53:12.868Z,22.06
2022-08-19T03:54:12.798Z,22.08
2022-08-19T03:55:12.717Z,22.04
2022-08-19T03:56:12.646Z,22.06
2022-08-19T03:57:12.593Z,22.07
2022-08-19T03:58:12.495Z,22.00
2022-08-19T03:59:12.422Z,22.08
2022-08-19T04:00:13.675Z,22.02
2022-08-19T04:01:12.315Z,22.08
2022-08-19T04:02:12.209Z,22.11
2022-08-19T04:03:12.127Z,22.14
2022-08-19T04:04:12.052Z,22.07
2022-08-19T04:05:11.973Z,22.17
2022-08-19T04:06:11.903Z,22.14
2022-08-19T04:07:11.826Z,22.02
2022-08-19T04:08:13.940Z,22.06
2022-08-19T04:09:11.676Z,22.14
2022-08-19T04:10:11.610Z,22.13
2022-08-19T04:11:11.534Z,22.17
2022-08-19T04:12:11.456Z,22.04
2022-08-19T04:13:11.386Z,22.18
2022-08-19T04:14:11.311Z,22.11
2022-08-19T04:15:11.236Z,22.17
2022-08-19T04:16:11.161Z,22.17
2022-08-19T04:17:11.086Z,22.18
2022-08-19T04:18:11.017Z,22.18
2022-08-19T04:19:10.946Z,22.07
2022-08-19T04:20:10.871Z,22.17
2022-08-19T04:21:10.793Z,22.18
2022-08-19T04:22:10.723Z,22.22
2022-08-19T04:23:10.647Z,22.17
2022-08-19T04:24:10.582Z,22.22
2022-08-19T04:25:10.498Z,22.15
2022-08-19T04:26:10.433Z,22.17
2022-08-19T04:27:10.357Z,22.18
2022-08-19T04:28:10.279Z,22.26
2022-08-19T04:29:12.493Z,22.18
2022-08-19T04:30:10.131Z,22.13
2022-08-19T04:31:10.060Z,22.30
2022-08-19T04:32:10.176Z,22.15
2022-08-19T04:33:09.926Z,22.17
2022-08-19T04:34:09.832Z,22.13
2022-08-19T04:35:16.969Z,22.17
2022-08-19T04:36:09.685Z,22.28
2022-08-19T04:37:09.609Z,22.18
2022-08-19T04:38:09.542Z,22.15
2022-08-19T04:39:09.467Z,22.13
2022-08-19T04:40:09.540Z,22.20
2022-08-19T04:41:09.315Z,22.13
2022-08-19T04:42:09.242Z,22.17
2022-08-19T04:43:09.168Z,22.15
2022-08-19T04:44:09.094Z,22.15
2022-08-19T04:45:09.272Z,22.18
2022-08-19T04:46:08.942Z,22.20
2022-08-19T04:47:10.990Z,22.17
2022-08-19T04:48:19.618Z,22.25
2022-08-19T04:49:13.219Z,22.17
2022-08-19T04:50:08.655Z,22.17
2022-08-19T04:51:08.583Z,22.22
2022-08-19T04:52:08.511Z,22.25
2022-08-19T04:53:08.436Z,22.15
2022-08-19T04:54:08.354Z,22.14
2022-08-19T04:55:08.289Z,22.17
2022-08-19T04:56:08.212Z,22.17
2022-08-19T04:57:08.409Z,22.17
2022-08-19T04:58:08.067Z,22.17
2022-08-19T04:59:08.069Z,22.13
2022-08-19T05:00:07.917Z,22.13
2022-08-19T05:01:07.869Z,22.23
2022-08-19T05:02:07.766Z,22.23
2022-08-19T05:03:07.907Z,22.29
2022-08-19T05:04:07.623Z,22.29
2022-08-19T05:05:07.727Z,22.32
2022-08-19T05:06:07.469Z,22.26
2022-08-19T05:07:07.398Z,22.33
2022-08-19T05:08:07.331Z,22.28
2022-08-19T05:09:07.247Z,22.29
2022-08-19T05:10:07.175Z,22.33
2022-08-19T05:11:07.116Z,22.29
2022-08-19T05:12:07.030Z,22.33
2022-08-19T05:13:06.962Z,22.29
2022-08-19T05:14:06.884Z,22.30
2022-08-19T05:15:06.805Z,22.32
2022-08-19T05:16:06.736Z,22.33
2022-08-19T05:17:26.620Z,22.25
2022-08-19T05:18:06.588Z,22.36
2022-08-19T05:19:06.509Z,22.29
2022-08-19T05:20:06.441Z,22.35
2022-08-19T05:21:06.370Z,22.32
2022-08-19T05:22:06.292Z,22.32
2022-08-19T05:23:10.827Z,22.32
2022-08-19T05:24:06.141Z,22.36
2022-08-19T05:25:12.674Z,22.32
2022-08-19T05:26:05.995Z,22.38
2022-08-19T05:27:05.923Z,22.30
2022-08-19T05:28:05.850Z,22.35
2022-08-19T05:29:05.775Z,22.41
2022-08-19T05:30:05.704Z,22.47
2022-08-19T05:31:05.634Z,22.43
2022-08-19T05:32:05.557Z,22.50
2022-08-19T05:33:05.480Z,22.47
2022-08-19T05:34:05.407Z,22.51
2022-08-19T05:35:05.333Z,22.43
2022-08-19T05:36:05.260Z,22.50
2022-08-19T05:37:05.189Z,22.38
2022-08-19T05:38:05.113Z,22.35
2022-08-19T05:39:05.041Z,22.44
2022-08-19T05:40:05.080Z,22.43
2022-08-19T05:41:04.887Z,22.45
2022-08-19T05:42:04.815Z,22.41
2022-08-19T05:43:04.743Z,22.47
2022-08-19T05:44:04.667Z,22.36
2022-08-19T05:45:04.604Z,22.45
2022-08-19T05:46:04.530Z,22.48
2022-08-19T05:47:04.450Z,22.44
2022-08-19T05:48:04.379Z,22.45
2022-08-19T05:49:04.300Z,22.45
2022-08-19T05:50:05.075Z,22.45
2022-08-19T05:51:04.155Z,22.38
2022-08-19T05:52:04.080Z,22.45
2022-08-19T05:53:04.004Z,22.50
2022-08-19T05:54:03.933Z,22.47
2022-08-19T05:55:03.857Z,22.47
2022-08-19T05:56:03.789Z,22.44
2022-08-19T05:57:03.708Z,22.48
2022-08-19T05:58:03.635Z,22.47
2022-08-19T05:59:03.569Z,22.48
2022-08-19T06:00:03.493Z,22.41
2022-08-19T06:01:03.420Z,22.47
2022-08-19T06:02:03.344Z,22.45
2022-08-19T06:03:11.891Z,22.48
2022-08-19T06:04:03.192Z,22.50
2022-08-19T06:05:03.124Z,22.45
2022-08-19T06:06:03.049Z,22.45
2022-08-19T06:07:11.953Z,22.51
2022-08-19T06:08:02.900Z,22.48
2022-08-19T06:09:02.842Z,22.50
2022-08-19T06:10:02.757Z,22.48
2022-08-19T06:11:02.677Z,22.57
2022-08-19T06:12:02.611Z,22.60
2022-08-19T06:13:02.532Z,22.45
2022-08-19T06:14:02.457Z,22.50
2022-08-19T06:15:02.480Z,22.48
2022-08-19T06:16:02.309Z,22.60
2022-08-19T06:17:06.642Z,22.47
2022-08-19T06:18:02.164Z,22.51
2022-08-19T06:19:02.092Z,22.43
2022-08-19T06:20:02.015Z,22.38
2022-08-19T06:21:01.940Z,22.47
2022-08-19T06:22:01.867Z,22.48
2022-08-19T06:23:01.794Z,22.43
2022-08-19T06:24:01.724Z,22.39
2022-08-19T06:25:01.649Z,22.43
2022-08-19T06:26:01.582Z,22.35
2022-08-19T06:27:01.958Z,22.39
2022-08-19T06:28:17.354Z,22.43
2022-08-19T06:29:01.357Z,22.41
2022-08-19T06:30:01.282Z,22.38
2022-08-19T06:31:01.204Z,22.38
2022-08-19T06:32:01.139Z,22.36
2022-08-19T06:33:01.061Z,22.35
2022-08-19T06:34:00.989Z,22.38
2022-08-19T06:35:00.909Z,22.38
2022-08-19T06:36:00.836Z,22.43
2022-08-19T06:37:00.763Z,22.41
2022-08-19T06:38:00.689Z,22.41
2022-08-19T06:39:00.616Z,22.41
2022-08-19T06:40:00.595Z,22.45
2022-08-19T06:41:00.472Z,22.39
2022-08-19T06:42:00.395Z,22.39
2022-08-19T06:43:00.816Z,22.38
2022-08-19T06:44:00.255Z,22.43
2022-08-19T06:45:00.215Z,22.36
2022-08-19T06:46:00.100Z,22.36
2022-08-19T06:47:00.030Z,22.39
2022-08-19T06:47:59.956Z,22.43
2022-08-19T06:48:59.879Z,22.39
2022-08-19T06:50:03.235Z,22.41
2022-08-19T06:50:59.733Z,22.44
2022-08-19T06:51:59.661Z,22.41
2022-08-19T06:53:04.593Z,22.39
2022-08-19T06:53:59.512Z,22.38
2022-08-19T06:54:59.699Z,22.44
2022-08-19T06:55:59.368Z,22.36
2022-08-19T06:56:59.293Z,22.35
2022-08-19T06:57:59.218Z,22.29
2022-08-19T06:58:59.142Z,22.35
2022-08-19T06:59:59.067Z,22.30
2022-08-19T07:00:58.995Z,22.35
2022-08-19T07:01:58.922Z,22.33
2022-08-19T07:03:01.870Z,22.41
2022-08-19T07:03:58.772Z,22.33
2022-08-19T07:04:58.702Z,22.30
2022-08-19T07:05:58.625Z,22.35
2022-08-19T07:06:58.557Z,22.33
2022-08-19T07:08:02.880Z,22.32
2022-08-19T07:08:58.404Z,22.33
2022-08-19T07:10:01.039Z,22.35
2022-08-19T07:10:58.258Z,22.32
2022-08-19T07:11:58.190Z,22.30
2022-08-19T07:12:58.111Z,22.38
2022-08-19T07:13:58.039Z,22.36
2022-08-19T07:14:57.966Z,22.35
2022-08-19T07:15:57.894Z,22.30
2022-08-19T07:16:57.818Z,22.33
2022-08-19T07:17:57.740Z,22.33
2022-08-19T07:18:57.671Z,22.25
2022-08-19T07:19:57.592Z,22.28
2022-08-19T07:20:57.523Z,22.18
2022-08-19T07:21:57.447Z,22.26
2022-08-19T07:22:57.374Z,22.17
2022-08-19T07:23:57.301Z,22.30
2022-08-19T07:24:57.224Z,22.33
2022-08-19T07:25:57.191Z,22.17
2022-08-19T07:26:57.086Z,22.26
2022-08-19T07:27:57.168Z,22.30
2022-08-19T07:28:56.927Z,22.33
2022-08-19T07:29:57.513Z,22.28
2022-08-19T07:30:56.782Z,22.30
2022-08-19T07:31:56.709Z,22.30
2022-08-19T07:32:56.640Z,22.32
2022-08-19T07:33:56.570Z,22.36
2022-08-19T07:34:57.010Z,22.35
2022-08-19T07:35:56.418Z,22.36
2022-08-19T07:36:56.341Z,22.35
2022-08-19T07:37:56.263Z,22.41
2022-08-19T07:38:56.192Z,22.30
2022-08-19T07:39:56.178Z,22.33
2022-08-19T07:40:56.044Z,22.45
2022-08-19T07:41:55.973Z,22.39
2022-08-19T07:42:55.903Z,22.47
2022-08-19T07:43:55.830Z,22.45
2022-08-19T07:44:55.752Z,22.43
2022-08-19T07:45:55.718Z,22.47
2022-08-19T07:46:55.606Z,22.51
2022-08-19T07:47:55.533Z,22.50
2022-08-19T07:48:55.463Z,22.48
2022-08-19T07:49:55.389Z,22.47
2022-08-19T07:50:55.310Z,22.48
2022-08-19T07:51:55.235Z,22.59
2022-08-19T07:52:55.160Z,22.54
2022-08-19T07:53:55.088Z,22.55
2022-08-19T07:54:55.013Z,22.59
2022-08-19T07:55:54.940Z,22.59
2022-08-19T07:56:54.865Z,22.62
2022-08-19T07:57:54.801Z,22.66
2022-08-19T07:59:54.649Z,22.63
2022-08-19T08:00:54.571Z,22.60
2022-08-19T08:01:54.530Z,22.65
2022-08-19T08:02:55.755Z,22.70
2022-08-19T08:03:54.352Z,22.62
2022-08-19T08:04:54.278Z,22.69
2022-08-19T08:05:54.212Z,22.70
2022-08-19T08:06:54.138Z,22.69
2022-08-19T08:07:54.057Z,22.80
2022-08-19T08:08:53.985Z,22.81
2022-08-19T08:10:54.676Z,22.78
2022-08-19T08:11:53.761Z,22.87
2022-08-19T08:13:08.751Z,22.94
2022-08-19T08:14:00.744Z,22.94
2022-08-19T08:14:55.938Z,22.84
2022-08-19T08:15:53.468Z,22.96
2022-08-19T08:16:53.393Z,23.02
2022-08-19T08:17:53.321Z,23.02
2022-08-19T08:18:53.436Z,22.96
2022-08-19T08:19:53.171Z,23.09
2022-08-19T08:20:53.106Z,23.06
2022-08-19T08:21:53.029Z,23.12
2022-08-19T08:22:53.137Z,23.23
2022-08-19T08:23:55.663Z,23.21
2022-08-19T08:24:52.808Z,23.20
2022-08-19T08:25:52.733Z,23.20
2022-08-19T08:26:57.695Z,23.21
2022-08-19T08:27:53.777Z,23.27
2022-08-19T08:28:52.515Z,23.18
2022-08-19T08:29:52.450Z,23.32
2022-08-19T08:30:52.374Z,23.39
2022-08-19T08:32:00.064Z,23.31
2022-08-19T08:32:52.221Z,23.37
2022-08-19T08:33:52.152Z,23.37
2022-08-19T08:34:52.468Z,23.41
2022-08-19T08:35:52.000Z,23.47
2022-08-19T08:36:51.927Z,23.50
2022-08-19T08:37:52.050Z,23.55
2022-08-19T08:39:51.754Z,23.66
2022-08-19T08:40:51.633Z,23.74
2022-08-19T08:41:51.570Z,23.80
2022-08-19T08:42:51.493Z,23.86
2022-08-19T08:43:51.421Z,23.86
2022-08-19T08:44:51.462Z,23.92
2022-08-19T08:45:53.624Z,23.99
2022-08-19T08:46:52.788Z,24.02
2022-08-19T08:47:51.147Z,23.93
2022-08-19T08:48:52.565Z,23.93
2022-08-19T08:49:51.356Z,23.98
2022-08-19T08:50:50.908Z,24.03
2022-08-19T08:51:59.988Z,24.05
2022-08-19T08:52:50.801Z,24.01
2022-08-19T08:53:50.697Z,24.10
2022-08-19T08:54:55.307Z,23.99
2022-08-19T08:55:50.544Z,24.13
2022-08-19T08:56:50.470Z,24.11
2022-08-19T08:57:50.397Z,24.18
2022-08-19T08:58:53.962Z,24.18
2022-08-19T08:59:50.253Z,24.30
2022-08-19T09:00:50.177Z,24.26
2022-08-19T09:01:50.147Z,24.30
2022-08-19T09:02:50.384Z,24.33
2022-08-19T09:03:49.959Z,24.36
2022-08-19T09:04:49.885Z,24.39
2022-08-19T09:05:49.818Z,24.50
2022-08-19T09:06:49.740Z,24.42
2022-08-19T09:07:49.672Z,24.48
2022-08-19T09:08:49.598Z,24.39
2022-08-19T09:09:49.526Z,24.53
2022-08-19T09:10:49.458Z,24.48
2022-08-19T09:11:49.384Z,24.48
2022-08-19T09:12:49.317Z,24.32
2022-08-19T09:13:49.237Z,24.38
2022-08-19T09:14:51.161Z,24.30
2022-08-19T09:15:49.089Z,24.30
2022-08-19T09:16:49.016Z,24.35
2022-08-19T09:17:50.127Z,24.32
2022-08-19T09:18:48.885Z,24.28
2022-08-19T09:19:48.829Z,24.24
2022-08-19T09:20:48.735Z,24.18
2022-08-19T09:21:48.654Z,24.20
2022-08-19T09:22:48.585Z,24.06
2022-08-19T09:23:48.512Z,24.08
2022-08-19T09:24:48.443Z,24.03
2022-08-19T09:25:48.387Z,24.06
2022-08-19T09:26:52.863Z,24.10
2022-08-19T09:27:48.223Z,24.06
2022-08-19T09:28:48.277Z,24.02
2022-08-19T09:29:48.077Z,24.02
2022-08-19T09:30:48.003Z,24.02
2022-08-19T09:31:47.930Z,24.03
2022-08-19T09:32:52.946Z,24.01
2022-08-19T09:33:47.789Z,23.98
2022-08-19T09:34:51.232Z,24.05
2022-08-19T09:35:53.205Z,23.98
2022-08-19T09:36:47.569Z,24.02
2022-08-19T09:37:47.587Z,23.99
2022-08-19T09:38:47.424Z,23.99
2022-08-19T09:39:47.384Z,23.93
2022-08-19T09:40:47.278Z,23.93
2022-08-19T09:41:47.365Z,23.83
2022-08-19T09:42:50.096Z,23.87
2022-08-19T09:43:47.879Z,23.87
2022-08-19T09:44:46.991Z,23.86
2022-08-19T09:45:46.918Z,23.92
2022-08-19T09:46:46.844Z,23.87
2022-08-19T09:47:47.226Z,23.91
2022-08-19T09:48:46.693Z,23.88
2022-08-19T09:49:46.624Z,23.88
2022-08-19T09:50:51.536Z,23.92
2022-08-19T09:51:49.071Z,23.81
2022-08-19T09:52:55.388Z,23.81
2022-08-19T09:53:46.336Z,23.77
2022-08-19T09:54:46.265Z,23.80
2022-08-19T09:55:46.192Z,23.78
2022-08-19T09:56:46.118Z,23.86
2022-08-19T09:57:46.045Z,23.81
2022-08-19T09:58:45.973Z,23.84
2022-08-19T09:59:45.894Z,23.76
2022-08-19T10:00:45.828Z,23.84
2022-08-19T10:01:45.777Z,23.80
2022-08-19T10:02:45.821Z,23.80
2022-08-19T10:03:45.604Z,23.83
2022-08-19T10:04:45.538Z,23.83
2022-08-19T10:05:45.463Z,23.83
2022-08-19T10:06:45.994Z,23.84
2022-08-19T10:07:45.315Z,23.84
2022-08-19T10:08:50.378Z,23.78
2022-08-19T10:09:45.175Z,23.81
2022-08-19T10:10:46.612Z,23.80
2022-08-19T10:11:52.567Z,23.78
2022-08-19T10:12:44.952Z,23.71
2022-08-19T10:13:44.879Z,23.74
2022-08-19T10:14:44.809Z,23.68
2022-08-19T10:15:47.127Z,23.68
2022-08-19T10:16:44.657Z,23.65
2022-08-19T10:17:48.081Z,23.68
2022-08-19T10:18:44.514Z,23.59
2022-08-19T10:19:55.142Z,23.61
2022-08-19T10:20:44.371Z,23.63
2022-08-19T10:21:44.298Z,23.62
2022-08-19T10:22:44.225Z,23.68
2022-08-19T10:23:44.156Z,23.77
2022-08-19T10:24:44.079Z,23.69
2022-08-19T10:25:44.007Z,23.76
2022-08-19T10:26:43.933Z,23.78
2022-08-19T10:27:46.554Z,23.80
2022-08-19T10:28:43.789Z,23.83
2022-08-19T10:29:46.399Z,23.86
2022-08-19T10:30:43.646Z,23.88
2022-08-19T10:32:00.126Z,23.91
2022-08-19T10:32:46.396Z,23.87
2022-08-19T10:33:53.654Z,23.99
2022-08-19T10:34:48.286Z,24.05
2022-08-19T10:35:57.008Z,24.02
2022-08-19T10:36:54.388Z,24.10
2022-08-19T10:37:56.930Z,24.24
2022-08-19T10:38:51.215Z,24.28
2022-08-19T10:39:43.567Z,24.30
2022-08-19T10:40:42.911Z,24.28
2022-08-19T10:41:42.841Z,24.35
2022-08-19T10:42:42.770Z,24.40
2022-08-19T10:43:42.698Z,24.32
2022-08-19T10:44:42.619Z,24.35
2022-08-19T10:45:52.552Z,24.32
2022-08-19T10:46:46.040Z,24.28
2022-08-19T10:47:42.403Z,24.26
2022-08-19T10:48:42.344Z,24.21
2022-08-19T10:49:42.258Z,24.18
2022-08-19T10:50:42.189Z,24.23
2022-08-19T10:51:44.610Z,24.16
2022-08-19T10:52:49.020Z,24.28
2022-08-19T10:53:41.969Z,24.33
2022-08-19T10:54:41.901Z,24.29
2022-08-19T10:55:41.824Z,24.30
2022-08-19T10:56:41.751Z,24.28
2022-08-19T10:58:01.407Z,24.29
2022-08-19T10:58:41.604Z,24.30
2022-08-19T10:59:41.531Z,24.36
2022-08-19T11:00:41.470Z,24.33
2022-08-19T11:01:41.384Z,24.33
2022-08-19T11:02:41.314Z,24.21
2022-08-19T11:03:41.246Z,24.20
2022-08-19T11:04:41.168Z,24.23
2022-08-19T11:05:41.102Z,24.20
2022-08-19T11:06:41.026Z,24.24
2022-08-19T11:07:40.949Z,24.26
2022-08-19T11:08:40.897Z,24.29
2022-08-19T11:09:40.811Z,24.30
2022-08-19T11:10:40.736Z,24.32
2022-08-19T11:11:40.659Z,24.35
2022-08-19T11:12:40.586Z,24.35
2022-08-19T11:13:40.518Z,24.30
2022-08-19T11:14:40.451Z,24.28
2022-08-19T11:15:40.376Z,24.32
2022-08-19T11:16:40.303Z,24.28
2022-08-19T11:17:40.239Z,24.36
2022-08-19T11:18:40.157Z,24.30
2022-08-19T11:19:40.081Z,24.32
2022-08-19T11:20:40.008Z,24.36
2022-08-19T11:21:39.938Z,24.32
2022-08-19T11:22:41.818Z,24.26
2022-08-19T11:23:39.793Z,24.28
2022-08-19T11:24:39.721Z,24.32
2022-08-19T11:25:39.650Z,24.26
2022-08-19T11:26:39.575Z,24.28
2022-08-19T11:27:39.502Z,24.28
2022-08-19T11:28:39.429Z,24.28
2022-08-19T11:29:39.356Z,24.33
2022-08-19T11:30:39.284Z,24.35
2022-08-19T11:31:39.211Z,24.32
2022-08-19T11:32:39.133Z,24.24
2022-08-19T11:33:39.063Z,24.23
2022-08-19T11:34:38.993Z,24.16
2022-08-19T11:35:38.916Z,24.18
2022-08-19T11:36:38.851Z,24.20
2022-08-19T11:37:38.773Z,24.18
2022-08-19T11:38:38.707Z,24.14
2022-08-19T11:39:38.717Z,24.16
2022-08-19T11:40:38.553Z,24.17
2022-08-19T11:41:38.484Z,24.18
2022-08-19T11:42:38.410Z,24.05
2022-08-19T11:43:38.338Z,24.01
2022-08-19T11:44:38.266Z,24.10
2022-08-19T11:45:38.192Z,24.05
2022-08-19T11:46:38.124Z,24.03
2022-08-19T11:47:38.057Z,24.03
2022-08-19T11:48:37.972Z,24.01
2022-08-19T11:49:37.900Z,24.01
2022-08-19T11:50:37.828Z,24.01
2022-08-19T11:51:37.755Z,23.98
2022-08-19T11:52:37.684Z,23.92
2022-08-19T11:53:37.621Z,23.91
2022-08-19T11:54:37.537Z,23.91
2022-08-19T11:55:37.463Z,23.87
2022-08-19T11:56:37.393Z,23.78
2022-08-19T11:57:37.317Z,23.81
2022-08-19T11:58:37.246Z,23.80
2022-08-19T11:59:37.175Z,23.71
2022-08-19T12:00:37.101Z,23.71
2022-08-19T12:01:37.035Z,23.62
2022-08-19T12:02:36.957Z,23.71
2022-08-19T12:03:36.995Z,23.58
2022-08-19T12:04:36.804Z,23.68
2022-08-19T12:05:36.734Z,23.62
2022-08-19T12:06:36.662Z,23.62
2022-08-19T12:07:36.591Z,23.61
2022-08-19T12:08:36.519Z,23.54
2022-08-19T12:09:36.442Z,23.51
2022-08-19T12:10:36.378Z,23.46
2022-08-19T12:11:36.302Z,23.54
2022-08-19T12:12:36.232Z,23.44
2022-08-19T12:13:36.153Z,23.44
2022-08-19T12:14:36.082Z,23.44
2022-08-19T12:15:37.221Z,23.51
2022-08-19T12:16:37.794Z,23.46
2022-08-19T12:17:35.863Z,23.51
2022-08-19T12:18:35.788Z,23.55
2022-08-19T12:19:35.715Z,23.41
2022-08-19T12:20:35.639Z,23.34
2022-08-19T12:21:35.567Z,23.43
2022-08-19T12:22:35.493Z,23.34
2022-08-19T12:23:35.422Z,23.32
2022-08-19T12:24:35.350Z,23.39
2022-08-19T12:25:35.275Z,23.40
2022-08-19T12:26:52.420Z,23.39
2022-08-19T12:27:40.829Z,23.28
2022-08-19T12:28:35.057Z,23.32
2022-08-19T12:29:34.987Z,23.36
2022-08-19T12:30:34.911Z,23.27
2022-08-19T12:31:34.839Z,23.28
2022-08-19T12:32:34.768Z,23.40
2022-08-19T12:33:34.692Z,23.39
2022-08-19T12:34:34.623Z,23.34
2022-08-19T12:35:34.551Z,23.24
2022-08-19T12:36:34.471Z,23.27
2022-08-19T12:37:34.396Z,23.32
2022-08-19T12:38:34.329Z,23.40
2022-08-19T12:39:34.303Z,23.41
2022-08-19T12:40:34.180Z,23.46
2022-08-19T12:41:34.109Z,23.48
2022-08-19T12:42:34.034Z,23.48
2022-08-19T12:43:33.963Z,23.39
2022-08-19T12:44:33.899Z,23.41
2022-08-19T12:45:36.375Z,23.47
2022-08-19T12:46:33.987Z,23.48
2022-08-19T12:47:33.668Z,23.46
2022-08-19T12:48:35.015Z,23.47
2022-08-19T12:49:55.188Z,23.56
2022-08-19T12:50:33.450Z,23.59
2022-08-19T12:51:33.376Z,23.48
2022-08-19T12:52:33.303Z,23.55
2022-08-19T12:53:33.231Z,23.54
2022-08-19T12:54:33.158Z,23.55
2022-08-19T12:55:33.089Z,23.62
2022-08-19T12:56:33.011Z,23.61
2022-08-19T12:57:33.552Z,23.61
2022-08-19T12:58:32.867Z,23.69